sensor_id;sensor_type;location;lat;lon;timestamp;P1;durP1;ratioP1;P2;durP2;ratioP2
8421;SDS011;4248;48.196;10.924;2023-06-22T00:01:49;16.07;;;7.20;;
8421;SDS011;4248;48.196;10.924;2023-06-22T00:04:15;16.50;;;6.30;;
8421;SDS011;4248;48.196;10.924;2023-06-22T00:06:40;11.57;;;6.47;;
8421;SDS011;4248;48.196;10.924;2023-06-22T00:09:06;20.03;;;6.83;;
8421;SDS011;4248;48.196;10.924;2023-06-22T00:11:32;16.87;;;6.90;;
8421;SDS011;4248;48.196;10.924;2023-06-22T00:13:58;20.70;;;7.57;;
8421;SDS011;4248;48.196;10.924;2023-06-22T00:16:24;13.40;;;6.40;;
8421;SDS011;4248;48.196;10.924;2023-06-22T00:18:50;15.27;;;6.70;;
8421;SDS011;4248;48.196;10.924;2023-06-22T00:21:16;21.27;;;8.27;;
8421;SDS011;4248;48.196;10.924;2023-06-22T00:23:41;14.93;;;6.70;;
8421;SDS011;4248;48.196;10.924;2023-06-22T00:26:07;20.77;;;6.57;;
8421;SDS011;4248;48.196;10.924;2023-06-22T00:28:33;15.27;;;7.20;;
8421;SDS011;4248;48.196;10.924;2023-06-22T00:30:59;20.07;;;7.93;;
8421;SDS011;4248;48.196;10.924;2023-06-22T00:33:25;17.90;;;7.77;;
8421;SDS011;4248;48.196;10.924;2023-06-22T00:35:51;17.53;;;6.23;;
8421;SDS011;4248;48.196;10.924;2023-06-22T00:38:18;11.87;;;6.67;;
8421;SDS011;4248;48.196;10.924;2023-06-22T00:40:44;10.30;;;6.60;;
8421;SDS011;4248;48.196;10.924;2023-06-22T00:43:10;15.20;;;6.30;;
8421;SDS011;4248;48.196;10.924;2023-06-22T00:45:35;10.43;;;6.47;;
8421;SDS011;4248;48.196;10.924;2023-06-22T00:48:01;17.63;;;7.30;;
8421;SDS011;4248;48.196;10.924;2023-06-22T00:50:29;18.00;;;6.70;;
8421;SDS011;4248;48.196;10.924;2023-06-22T00:53:03;14.20;;;6.50;;
8421;SDS011;4248;48.196;10.924;2023-06-22T00:55:34;17.87;;;7.43;;
8421;SDS011;4248;48.196;10.924;2023-06-22T00:58:04;12.70;;;6.70;;
8421;SDS011;4248;48.196;10.924;2023-06-22T01:00:32;20.30;;;6.57;;
8421;SDS011;4248;48.196;10.924;2023-06-22T01:02:58;17.60;;;6.70;;
8421;SDS011;4248;48.196;10.924;2023-06-22T01:05:24;17.50;;;7.63;;
8421;SDS011;4248;48.196;10.924;2023-06-22T01:13:11;13.57;;;7.80;;
8421;SDS011;4248;48.196;10.924;2023-06-22T01:15:44;16.90;;;6.87;;
8421;SDS011;4248;48.196;10.924;2023-06-22T01:18:14;15.83;;;6.67;;
8421;SDS011;4248;48.196;10.924;2023-06-22T01:20:43;14.13;;;5.97;;
8421;SDS011;4248;48.196;10.924;2023-06-22T01:23:26;15.90;;;6.30;;
8421;SDS011;4248;48.196;10.924;2023-06-22T01:26:17;16.43;;;6.83;;
8421;SDS011;4248;48.196;10.924;2023-06-22T01:28:50;15.13;;;6.20;;
8421;SDS011;4248;48.196;10.924;2023-06-22T01:31:19;18.60;;;7.33;;
8421;SDS011;4248;48.196;10.924;2023-06-22T01:33:54;13.87;;;6.50;;
8421;SDS011;4248;48.196;10.924;2023-06-22T01:36:31;15.60;;;7.00;;
8421;SDS011;4248;48.196;10.924;2023-06-22T01:38:58;14.43;;;6.37;;
8421;SDS011;4248;48.196;10.924;2023-06-22T01:41:25;17.03;;;6.50;;
8421;SDS011;4248;48.196;10.924;2023-06-22T01:43:53;23.03;;;6.77;;
8421;SDS011;4248;48.196;10.924;2023-06-22T01:46:19;15.73;;;7.03;;
8421;SDS011;4248;48.196;10.924;2023-06-22T01:48:46;13.53;;;6.90;;
8421;SDS011;4248;48.196;10.924;2023-06-22T01:51:12;15.60;;;6.80;;
8421;SDS011;4248;48.196;10.924;2023-06-22T01:53:38;13.47;;;5.93;;
8421;SDS011;4248;48.196;10.924;2023-06-22T01:56:04;14.40;;;6.17;;
8421;SDS011;4248;48.196;10.924;2023-06-22T01:58:30;18.33;;;6.00;;
8421;SDS011;4248;48.196;10.924;2023-06-22T02:01:05;16.13;;;6.50;;
8421;SDS011;4248;48.196;10.924;2023-06-22T02:04:01;13.10;;;6.03;;
8421;SDS011;4248;48.196;10.924;2023-06-22T02:06:31;13.30;;;7.13;;
8421;SDS011;4248;48.196;10.924;2023-06-22T02:09:02;12.03;;;5.87;;
8421;SDS011;4248;48.196;10.924;2023-06-22T02:11:33;14.17;;;6.30;;
8421;SDS011;4248;48.196;10.924;2023-06-22T02:14:01;16.27;;;6.40;;
8421;SDS011;4248;48.196;10.924;2023-06-22T02:16:27;14.20;;;5.73;;
8421;SDS011;4248;48.196;10.924;2023-06-22T02:18:56;18.13;;;7.13;;
8421;SDS011;4248;48.196;10.924;2023-06-22T02:21:26;16.47;;;6.70;;
8421;SDS011;4248;48.196;10.924;2023-06-22T02:23:52;10.80;;;6.40;;
8421;SDS011;4248;48.196;10.924;2023-06-22T02:26:17;14.10;;;6.90;;
8421;SDS011;4248;48.196;10.924;2023-06-22T02:28:43;21.70;;;7.90;;
8421;SDS011;4248;48.196;10.924;2023-06-22T02:31:09;15.30;;;6.50;;
8421;SDS011;4248;48.196;10.924;2023-06-22T02:33:36;16.00;;;7.53;;
8421;SDS011;4248;48.196;10.924;2023-06-22T02:36:01;15.17;;;7.10;;
8421;SDS011;4248;48.196;10.924;2023-06-22T02:38:30;17.20;;;7.77;;
8421;SDS011;4248;48.196;10.924;2023-06-22T02:40:59;14.30;;;8.13;;
8421;SDS011;4248;48.196;10.924;2023-06-22T02:43:26;15.80;;;7.50;;
8421;SDS011;4248;48.196;10.924;2023-06-22T02:45:51;16.90;;;7.70;;
8421;SDS011;4248;48.196;10.924;2023-06-22T02:48:17;15.47;;;7.27;;
8421;SDS011;4248;48.196;10.924;2023-06-22T02:50:42;14.00;;;6.43;;
8421;SDS011;4248;48.196;10.924;2023-06-22T02:53:08;18.07;;;7.90;;
8421;SDS011;4248;48.196;10.924;2023-06-22T02:55:33;18.63;;;7.87;;
8421;SDS011;4248;48.196;10.924;2023-06-22T02:57:59;18.57;;;8.43;;
8421;SDS011;4248;48.196;10.924;2023-06-22T03:00:24;14.87;;;7.60;;
8421;SDS011;4248;48.196;10.924;2023-06-22T03:02:55;16.73;;;8.27;;
8421;SDS011;4248;48.196;10.924;2023-06-22T03:05:22;22.43;;;8.20;;
8421;SDS011;4248;48.196;10.924;2023-06-22T03:07:48;15.93;;;7.67;;
8421;SDS011;4248;48.196;10.924;2023-06-22T03:10:14;12.67;;;7.13;;
8421;SDS011;4248;48.196;10.924;2023-06-22T03:12:40;15.90;;;8.03;;
8421;SDS011;4248;48.196;10.924;2023-06-22T03:15:11;15.80;;;7.80;;
8421;SDS011;4248;48.196;10.924;2023-06-22T03:17:37;16.10;;;7.70;;
8421;SDS011;4248;48.196;10.924;2023-06-22T03:20:05;27.23;;;8.73;;
8421;SDS011;4248;48.196;10.924;2023-06-22T03:22:35;17.63;;;8.60;;
8421;SDS011;4248;48.196;10.924;2023-06-22T03:25:04;12.73;;;8.20;;
8421;SDS011;4248;48.196;10.924;2023-06-22T03:27:36;15.20;;;8.40;;
8421;SDS011;4248;48.196;10.924;2023-06-22T03:30:02;15.80;;;8.40;;
8421;SDS011;4248;48.196;10.924;2023-06-22T03:32:28;20.13;;;8.60;;
8421;SDS011;4248;48.196;10.924;2023-06-22T03:34:53;15.53;;;8.53;;
8421;SDS011;4248;48.196;10.924;2023-06-22T03:37:19;20.07;;;7.87;;
8421;SDS011;4248;48.196;10.924;2023-06-22T03:39:44;16.97;;;7.30;;
8421;SDS011;4248;48.196;10.924;2023-06-22T03:42:10;15.00;;;7.67;;
8421;SDS011;4248;48.196;10.924;2023-06-22T03:44:36;18.63;;;8.30;;
8421;SDS011;4248;48.196;10.924;2023-06-22T03:47:02;17.13;;;7.80;;
8421;SDS011;4248;48.196;10.924;2023-06-22T03:49:28;13.87;;;7.60;;
8421;SDS011;4248;48.196;10.924;2023-06-22T03:51:54;26.17;;;7.53;;
8421;SDS011;4248;48.196;10.924;2023-06-22T03:54:19;12.73;;;7.13;;
8421;SDS011;4248;48.196;10.924;2023-06-22T03:56:45;22.40;;;8.67;;
8421;SDS011;4248;48.196;10.924;2023-06-22T03:59:10;12.00;;;7.57;;
8421;SDS011;4248;48.196;10.924;2023-06-22T04:01:36;20.43;;;8.13;;
8421;SDS011;4248;48.196;10.924;2023-06-22T04:04:02;19.80;;;7.33;;
8421;SDS011;4248;48.196;10.924;2023-06-22T04:06:27;19.17;;;8.90;;
8421;SDS011;4248;48.196;10.924;2023-06-22T04:08:53;19.70;;;8.00;;
8421;SDS011;4248;48.196;10.924;2023-06-22T04:11:18;16.50;;;9.13;;
8421;SDS011;4248;48.196;10.924;2023-06-22T04:13:44;17.87;;;8.10;;
8421;SDS011;4248;48.196;10.924;2023-06-22T04:16:09;14.23;;;6.80;;
8421;SDS011;4248;48.196;10.924;2023-06-22T04:18:35;16.70;;;8.00;;
8421;SDS011;4248;48.196;10.924;2023-06-22T04:21:01;17.83;;;7.50;;
8421;SDS011;4248;48.196;10.924;2023-06-22T04:23:27;17.80;;;8.00;;
8421;SDS011;4248;48.196;10.924;2023-06-22T04:25:53;19.57;;;7.90;;
8421;SDS011;4248;48.196;10.924;2023-06-22T04:28:18;14.87;;;7.40;;
8421;SDS011;4248;48.196;10.924;2023-06-22T04:30:44;16.97;;;7.77;;
8421;SDS011;4248;48.196;10.924;2023-06-22T04:33:13;26.30;;;8.00;;
8421;SDS011;4248;48.196;10.924;2023-06-22T04:35:39;14.80;;;7.87;;
8421;SDS011;4248;48.196;10.924;2023-06-22T04:38:07;14.17;;;7.53;;
8421;SDS011;4248;48.196;10.924;2023-06-22T04:40:33;16.87;;;7.50;;
8421;SDS011;4248;48.196;10.924;2023-06-22T04:42:58;16.53;;;7.93;;
8421;SDS011;4248;48.196;10.924;2023-06-22T04:45:27;14.17;;;6.63;;
8421;SDS011;4248;48.196;10.924;2023-06-22T04:47:56;14.43;;;7.00;;
8421;SDS011;4248;48.196;10.924;2023-06-22T04:50:21;12.60;;;6.43;;
8421;SDS011;4248;48.196;10.924;2023-06-22T04:52:48;11.13;;;6.80;;
8421;SDS011;4248;48.196;10.924;2023-06-22T04:55:14;17.03;;;7.20;;
8421;SDS011;4248;48.196;10.924;2023-06-22T04:57:45;17.67;;;6.70;;
8421;SDS011;4248;48.196;10.924;2023-06-22T05:00:14;23.17;;;6.40;;
8421;SDS011;4248;48.196;10.924;2023-06-22T05:02:42;15.00;;;6.10;;
8421;SDS011;4248;48.196;10.924;2023-06-22T05:05:09;13.00;;;5.80;;
8421;SDS011;4248;48.196;10.924;2023-06-22T05:07:38;17.93;;;7.30;;
8421;SDS011;4248;48.196;10.924;2023-06-22T05:10:24;12.97;;;6.63;;
8421;SDS011;4248;48.196;10.924;2023-06-22T05:12:51;14.97;;;5.83;;
8421;SDS011;4248;48.196;10.924;2023-06-22T05:15:16;14.73;;;6.90;;
8421;SDS011;4248;48.196;10.924;2023-06-22T05:17:44;14.57;;;6.77;;
8421;SDS011;4248;48.196;10.924;2023-06-22T05:20:10;17.30;;;6.87;;
8421;SDS011;4248;48.196;10.924;2023-06-22T05:22:37;17.13;;;6.20;;
8421;SDS011;4248;48.196;10.924;2023-06-22T05:25:04;20.97;;;7.30;;
8421;SDS011;4248;48.196;10.924;2023-06-22T05:27:31;12.27;;;7.07;;
8421;SDS011;4248;48.196;10.924;2023-06-22T05:29:56;19.30;;;6.93;;
8421;SDS011;4248;48.196;10.924;2023-06-22T05:32:22;16.10;;;6.67;;
8421;SDS011;4248;48.196;10.924;2023-06-22T05:34:47;12.33;;;6.60;;
8421;SDS011;4248;48.196;10.924;2023-06-22T05:37:13;15.93;;;6.27;;
8421;SDS011;4248;48.196;10.924;2023-06-22T05:39:38;20.93;;;6.60;;
8421;SDS011;4248;48.196;10.924;2023-06-22T05:42:05;15.90;;;6.63;;
8421;SDS011;4248;48.196;10.924;2023-06-22T05:44:31;11.13;;;5.93;;
8421;SDS011;4248;48.196;10.924;2023-06-22T05:46:58;13.83;;;5.97;;
8421;SDS011;4248;48.196;10.924;2023-06-22T05:49:24;16.80;;;6.20;;
8421;SDS011;4248;48.196;10.924;2023-06-22T05:51:54;13.63;;;6.90;;
8421;SDS011;4248;48.196;10.924;2023-06-22T05:54:21;17.77;;;7.20;;
8421;SDS011;4248;48.196;10.924;2023-06-22T05:56:47;11.80;;;6.00;;
8421;SDS011;4248;48.196;10.924;2023-06-22T05:59:12;14.70;;;7.23;;
8421;SDS011;4248;48.196;10.924;2023-06-22T06:01:38;18.03;;;6.60;;
8421;SDS011;4248;48.196;10.924;2023-06-22T06:04:05;11.03;;;6.53;;
8421;SDS011;4248;48.196;10.924;2023-06-22T06:06:33;13.80;;;7.27;;
8421;SDS011;4248;48.196;10.924;2023-06-22T06:08:59;15.13;;;6.37;;
8421;SDS011;4248;48.196;10.924;2023-06-22T06:11:25;10.60;;;6.00;;
8421;SDS011;4248;48.196;10.924;2023-06-22T06:13:51;17.90;;;7.10;;
8421;SDS011;4248;48.196;10.924;2023-06-22T06:16:17;18.27;;;7.20;;
8421;SDS011;4248;48.196;10.924;2023-06-22T06:18:42;13.90;;;7.40;;
8421;SDS011;4248;48.196;10.924;2023-06-22T06:21:08;20.63;;;7.20;;
8421;SDS011;4248;48.196;10.924;2023-06-22T06:23:33;19.47;;;7.93;;
8421;SDS011;4248;48.196;10.924;2023-06-22T06:25:59;17.27;;;7.30;;
8421;SDS011;4248;48.196;10.924;2023-06-22T06:28:24;16.43;;;7.50;;
8421;SDS011;4248;48.196;10.924;2023-06-22T06:30:50;12.80;;;7.33;;
8421;SDS011;4248;48.196;10.924;2023-06-22T06:33:16;20.50;;;7.20;;
8421;SDS011;4248;48.196;10.924;2023-06-22T06:35:42;12.30;;;6.17;;
8421;SDS011;4248;48.196;10.924;2023-06-22T06:38:08;14.03;;;7.53;;
8421;SDS011;4248;48.196;10.924;2023-06-22T06:40:33;15.20;;;7.20;;
8421;SDS011;4248;48.196;10.924;2023-06-22T06:42:59;25.00;;;7.40;;
8421;SDS011;4248;48.196;10.924;2023-06-22T06:45:24;13.97;;;6.10;;
8421;SDS011;4248;48.196;10.924;2023-06-22T06:47:52;17.87;;;6.83;;
8421;SDS011;4248;48.196;10.924;2023-06-22T06:50:18;15.10;;;7.20;;
8421;SDS011;4248;48.196;10.924;2023-06-22T06:52:43;21.90;;;7.43;;
8421;SDS011;4248;48.196;10.924;2023-06-22T06:55:09;16.90;;;7.07;;
8421;SDS011;4248;48.196;10.924;2023-06-22T06:57:37;12.67;;;7.30;;
8421;SDS011;4248;48.196;10.924;2023-06-22T07:00:07;15.90;;;7.37;;
8421;SDS011;4248;48.196;10.924;2023-06-22T07:02:38;15.43;;;7.10;;
8421;SDS011;4248;48.196;10.924;2023-06-22T07:05:05;16.80;;;7.70;;
8421;SDS011;4248;48.196;10.924;2023-06-22T07:07:31;17.37;;;8.00;;
8421;SDS011;4248;48.196;10.924;2023-06-22T07:09:57;20.03;;;6.90;;
8421;SDS011;4248;48.196;10.924;2023-06-22T07:12:23;21.67;;;6.73;;
8421;SDS011;4248;48.196;10.924;2023-06-22T07:14:49;21.73;;;7.80;;
8421;SDS011;4248;48.196;10.924;2023-06-22T07:17:15;19.00;;;7.87;;
8421;SDS011;4248;48.196;10.924;2023-06-22T07:19:40;20.23;;;7.73;;
8421;SDS011;4248;48.196;10.924;2023-06-22T07:22:07;22.13;;;8.33;;
8421;SDS011;4248;48.196;10.924;2023-06-22T07:24:32;16.60;;;7.53;;
8421;SDS011;4248;48.196;10.924;2023-06-22T07:26:58;12.37;;;6.77;;
8421;SDS011;4248;48.196;10.924;2023-06-22T07:29:24;23.27;;;7.10;;
8421;SDS011;4248;48.196;10.924;2023-06-22T07:31:51;19.00;;;8.27;;
8421;SDS011;4248;48.196;10.924;2023-06-22T07:34:18;14.40;;;7.30;;
8421;SDS011;4248;48.196;10.924;2023-06-22T07:36:44;26.37;;;7.93;;
8421;SDS011;4248;48.196;10.924;2023-06-22T07:39:11;14.60;;;6.93;;
8421;SDS011;4248;48.196;10.924;2023-06-22T07:41:38;27.20;;;7.30;;
8421;SDS011;4248;48.196;10.924;2023-06-22T07:44:04;18.70;;;6.77;;
8421;SDS011;4248;48.196;10.924;2023-06-22T07:46:31;18.90;;;8.30;;
8421;SDS011;4248;48.196;10.924;2023-06-22T07:48:57;17.20;;;8.20;;
8421;SDS011;4248;48.196;10.924;2023-06-22T07:51:22;16.47;;;7.37;;
8421;SDS011;4248;48.196;10.924;2023-06-22T07:53:48;13.30;;;6.90;;
8421;SDS011;4248;48.196;10.924;2023-06-22T07:56:14;15.47;;;7.03;;
8421;SDS011;4248;48.196;10.924;2023-06-22T07:58:44;18.87;;;6.90;;
8421;SDS011;4248;48.196;10.924;2023-06-22T08:01:10;18.30;;;7.00;;
8421;SDS011;4248;48.196;10.924;2023-06-22T08:03:36;15.20;;;7.70;;
8421;SDS011;4248;48.196;10.924;2023-06-22T08:06:01;16.53;;;7.33;;
8421;SDS011;4248;48.196;10.924;2023-06-22T08:08:27;13.20;;;7.70;;
8421;SDS011;4248;48.196;10.924;2023-06-22T08:10:53;16.97;;;6.83;;
8421;SDS011;4248;48.196;10.924;2023-06-22T08:13:18;21.63;;;8.90;;
8421;SDS011;4248;48.196;10.924;2023-06-22T08:15:44;25.07;;;7.20;;
8421;SDS011;4248;48.196;10.924;2023-06-22T08:18:10;22.83;;;7.60;;
8421;SDS011;4248;48.196;10.924;2023-06-22T08:20:35;21.03;;;7.80;;
8421;SDS011;4248;48.196;10.924;2023-06-22T08:23:01;17.90;;;6.23;;
8421;SDS011;4248;48.196;10.924;2023-06-22T08:25:31;19.97;;;7.10;;
8421;SDS011;4248;48.196;10.924;2023-06-22T08:27:57;17.27;;;8.40;;
8421;SDS011;4248;48.196;10.924;2023-06-22T08:30:23;26.20;;;8.13;;
8421;SDS011;4248;48.196;10.924;2023-06-22T08:32:48;17.43;;;7.20;;
8421;SDS011;4248;48.196;10.924;2023-06-22T08:35:14;28.07;;;8.30;;
8421;SDS011;4248;48.196;10.924;2023-06-22T08:37:40;25.10;;;8.53;;
8421;SDS011;4248;48.196;10.924;2023-06-22T08:40:06;16.43;;;7.00;;
8421;SDS011;4248;48.196;10.924;2023-06-22T08:42:34;22.33;;;7.20;;
8421;SDS011;4248;48.196;10.924;2023-06-22T08:45:03;23.00;;;8.20;;
8421;SDS011;4248;48.196;10.924;2023-06-22T08:47:29;27.33;;;8.67;;
8421;SDS011;4248;48.196;10.924;2023-06-22T08:49:54;18.03;;;7.10;;
8421;SDS011;4248;48.196;10.924;2023-06-22T08:52:20;19.27;;;8.37;;
8421;SDS011;4248;48.196;10.924;2023-06-22T08:54:46;22.30;;;8.23;;
8421;SDS011;4248;48.196;10.924;2023-06-22T08:57:12;18.73;;;7.93;;
8421;SDS011;4248;48.196;10.924;2023-06-22T08:59:37;19.73;;;8.47;;
8421;SDS011;4248;48.196;10.924;2023-06-22T09:02:03;20.90;;;7.63;;
8421;SDS011;4248;48.196;10.924;2023-06-22T09:04:29;19.83;;;6.97;;
8421;SDS011;4248;48.196;10.924;2023-06-22T09:06:54;18.77;;;7.40;;
8421;SDS011;4248;48.196;10.924;2023-06-22T09:09:20;21.17;;;8.20;;
8421;SDS011;4248;48.196;10.924;2023-06-22T09:11:46;21.73;;;8.23;;
8421;SDS011;4248;48.196;10.924;2023-06-22T09:14:12;15.90;;;7.23;;
8421;SDS011;4248;48.196;10.924;2023-06-22T09:16:37;20.20;;;8.67;;
8421;SDS011;4248;48.196;10.924;2023-06-22T09:19:03;25.50;;;7.73;;
8421;SDS011;4248;48.196;10.924;2023-06-22T09:21:29;18.93;;;8.23;;
8421;SDS011;4248;48.196;10.924;2023-06-22T09:23:54;20.60;;;7.97;;
8421;SDS011;4248;48.196;10.924;2023-06-22T09:26:20;22.17;;;7.90;;
8421;SDS011;4248;48.196;10.924;2023-06-22T09:28:47;23.80;;;8.77;;
8421;SDS011;4248;48.196;10.924;2023-06-22T09:31:13;23.23;;;8.10;;
8421;SDS011;4248;48.196;10.924;2023-06-22T09:33:39;17.40;;;7.20;;
8421;SDS011;4248;48.196;10.924;2023-06-22T09:36:05;22.73;;;7.77;;
8421;SDS011;4248;48.196;10.924;2023-06-22T09:38:37;17.93;;;7.60;;
8421;SDS011;4248;48.196;10.924;2023-06-22T09:41:04;26.10;;;8.17;;
8421;SDS011;4248;48.196;10.924;2023-06-22T09:43:30;19.47;;;7.97;;
8421;SDS011;4248;48.196;10.924;2023-06-22T09:45:57;19.60;;;9.40;;
8421;SDS011;4248;48.196;10.924;2023-06-22T09:48:23;17.90;;;7.70;;
8421;SDS011;4248;48.196;10.924;2023-06-22T09:50:48;18.67;;;7.30;;
8421;SDS011;4248;48.196;10.924;2023-06-22T09:53:14;26.03;;;8.30;;
8421;SDS011;4248;48.196;10.924;2023-06-22T09:55:40;22.67;;;8.50;;
8421;SDS011;4248;48.196;10.924;2023-06-22T09:58:05;21.70;;;7.03;;
8421;SDS011;4248;48.196;10.924;2023-06-22T10:00:31;22.63;;;6.90;;
8421;SDS011;4248;48.196;10.924;2023-06-22T10:02:56;18.20;;;7.70;;
8421;SDS011;4248;48.196;10.924;2023-06-22T10:05:22;19.80;;;8.63;;
8421;SDS011;4248;48.196;10.924;2023-06-22T10:07:48;21.57;;;8.40;;
8421;SDS011;4248;48.196;10.924;2023-06-22T10:10:14;32.13;;;7.70;;
8421;SDS011;4248;48.196;10.924;2023-06-22T10:12:47;24.90;;;7.90;;
8421;SDS011;4248;48.196;10.924;2023-06-22T10:15:19;21.63;;;8.10;;
8421;SDS011;4248;48.196;10.924;2023-06-22T10:17:46;23.20;;;8.20;;
8421;SDS011;4248;48.196;10.924;2023-06-22T10:20:12;13.40;;;7.23;;
8421;SDS011;4248;48.196;10.924;2023-06-22T10:22:38;20.03;;;8.20;;
8421;SDS011;4248;48.196;10.924;2023-06-22T10:25:05;20.07;;;6.90;;
8421;SDS011;4248;48.196;10.924;2023-06-22T10:27:31;32.77;;;7.60;;
8421;SDS011;4248;48.196;10.924;2023-06-22T10:29:57;23.27;;;7.90;;
8421;SDS011;4248;48.196;10.924;2023-06-22T10:32:23;18.70;;;7.63;;
8421;SDS011;4248;48.196;10.924;2023-06-22T10:34:48;28.90;;;8.90;;
8421;SDS011;4248;48.196;10.924;2023-06-22T10:37:14;20.80;;;7.03;;
8421;SDS011;4248;48.196;10.924;2023-06-22T10:39:39;18.00;;;7.67;;
8421;SDS011;4248;48.196;10.924;2023-06-22T10:42:05;18.83;;;8.07;;
8421;SDS011;4248;48.196;10.924;2023-06-22T10:44:31;27.33;;;8.40;;
8421;SDS011;4248;48.196;10.924;2023-06-22T10:46:56;19.20;;;7.00;;
8421;SDS011;4248;48.196;10.924;2023-06-22T10:49:22;14.80;;;7.30;;
8421;SDS011;4248;48.196;10.924;2023-06-22T10:51:47;23.03;;;7.70;;
8421;SDS011;4248;48.196;10.924;2023-06-22T10:54:13;22.77;;;7.37;;
8421;SDS011;4248;48.196;10.924;2023-06-22T10:56:39;20.80;;;7.60;;
8421;SDS011;4248;48.196;10.924;2023-06-22T10:59:05;19.90;;;6.60;;
8421;SDS011;4248;48.196;10.924;2023-06-22T11:01:30;17.60;;;7.37;;
8421;SDS011;4248;48.196;10.924;2023-06-22T11:03:58;16.73;;;6.90;;
8421;SDS011;4248;48.196;10.924;2023-06-22T11:06:23;18.83;;;8.07;;
8421;SDS011;4248;48.196;10.924;2023-06-22T11:08:49;14.70;;;7.33;;
8421;SDS011;4248;48.196;10.924;2023-06-22T11:11:15;17.17;;;8.07;;
8421;SDS011;4248;48.196;10.924;2023-06-22T11:13:42;23.03;;;7.40;;
8421;SDS011;4248;48.196;10.924;2023-06-22T11:16:08;28.57;;;8.33;;
8421;SDS011;4248;48.196;10.924;2023-06-22T11:18:34;21.08;;;8.10;;
8421;SDS011;4248;48.196;10.924;2023-06-22T11:21:00;23.90;;;9.20;;
8421;SDS011;4248;48.196;10.924;2023-06-22T11:23:25;20.30;;;7.67;;
8421;SDS011;4248;48.196;10.924;2023-06-22T11:25:52;23.70;;;9.10;;
8421;SDS011;4248;48.196;10.924;2023-06-22T11:28:18;32.30;;;8.63;;
8421;SDS011;4248;48.196;10.924;2023-06-22T11:30:44;22.13;;;8.37;;
8421;SDS011;4248;48.196;10.924;2023-06-22T11:33:09;23.63;;;7.10;;
8421;SDS011;4248;48.196;10.924;2023-06-22T11:35:35;22.07;;;8.40;;
8421;SDS011;4248;48.196;10.924;2023-06-22T11:38:00;18.27;;;8.03;;
8421;SDS011;4248;48.196;10.924;2023-06-22T11:40:28;18.97;;;8.60;;
8421;SDS011;4248;48.196;10.924;2023-06-22T11:42:53;18.40;;;7.30;;
8421;SDS011;4248;48.196;10.924;2023-06-22T11:45:19;24.43;;;8.00;;
8421;SDS011;4248;48.196;10.924;2023-06-22T11:47:45;17.47;;;7.70;;
8421;SDS011;4248;48.196;10.924;2023-06-22T11:50:11;25.10;;;8.07;;
8421;SDS011;4248;48.196;10.924;2023-06-22T11:52:37;15.53;;;7.80;;
8421;SDS011;4248;48.196;10.924;2023-06-22T11:55:03;26.80;;;8.10;;
8421;SDS011;4248;48.196;10.924;2023-06-22T11:57:30;20.73;;;7.07;;
8421;SDS011;4248;48.196;10.924;2023-06-22T11:59:58;24.60;;;8.50;;
8421;SDS011;4248;48.196;10.924;2023-06-22T12:02:23;19.67;;;7.23;;
8421;SDS011;4248;48.196;10.924;2023-06-22T12:04:49;17.93;;;8.20;;
8421;SDS011;4248;48.196;10.924;2023-06-22T12:07:17;20.20;;;7.97;;
8421;SDS011;4248;48.196;10.924;2023-06-22T12:09:43;19.43;;;7.20;;
8421;SDS011;4248;48.196;10.924;2023-06-22T12:12:09;14.33;;;6.67;;
8421;SDS011;4248;48.196;10.924;2023-06-22T12:14:34;16.80;;;7.60;;
8421;SDS011;4248;48.196;10.924;2023-06-22T12:17:00;22.43;;;8.07;;
8421;SDS011;4248;48.196;10.924;2023-06-22T12:19:26;22.30;;;7.90;;
8421;SDS011;4248;48.196;10.924;2023-06-22T12:21:51;25.03;;;7.60;;
8421;SDS011;4248;48.196;10.924;2023-06-22T12:24:17;19.63;;;7.83;;
8421;SDS011;4248;48.196;10.924;2023-06-22T12:26:42;17.33;;;7.00;;
8421;SDS011;4248;48.196;10.924;2023-06-22T12:29:08;20.93;;;7.70;;
8421;SDS011;4248;48.196;10.924;2023-06-22T12:31:35;18.37;;;7.43;;
8421;SDS011;4248;48.196;10.924;2023-06-22T12:34:03;17.67;;;7.53;;
8421;SDS011;4248;48.196;10.924;2023-06-22T12:36:29;18.97;;;7.10;;
8421;SDS011;4248;48.196;10.924;2023-06-22T12:38:54;11.23;;;5.80;;
8421;SDS011;4248;48.196;10.924;2023-06-22T12:41:20;19.30;;;8.30;;
8421;SDS011;4248;48.196;10.924;2023-06-22T12:43:46;19.37;;;7.53;;
8421;SDS011;4248;48.196;10.924;2023-06-22T12:46:11;16.70;;;7.33;;
8421;SDS011;4248;48.196;10.924;2023-06-22T12:48:37;16.80;;;8.07;;
8421;SDS011;4248;48.196;10.924;2023-06-22T12:51:07;18.73;;;7.23;;
8421;SDS011;4248;48.196;10.924;2023-06-22T12:53:33;14.23;;;7.00;;
8421;SDS011;4248;48.196;10.924;2023-06-22T12:55:59;17.47;;;6.70;;
8421;SDS011;4248;48.196;10.924;2023-06-22T12:58:24;24.00;;;7.30;;
8421;SDS011;4248;48.196;10.924;2023-06-22T13:00:50;24.33;;;7.60;;
8421;SDS011;4248;48.196;10.924;2023-06-22T13:03:15;23.80;;;7.07;;
8421;SDS011;4248;48.196;10.924;2023-06-22T13:05:41;20.80;;;6.90;;
8421;SDS011;4248;48.196;10.924;2023-06-22T13:08:07;34.00;;;7.77;;
8421;SDS011;4248;48.196;10.924;2023-06-22T13:10:33;18.73;;;7.30;;
8421;SDS011;4248;48.196;10.924;2023-06-22T13:12:59;15.10;;;7.17;;
8421;SDS011;4248;48.196;10.924;2023-06-22T13:15:26;19.13;;;6.37;;
8421;SDS011;4248;48.196;10.924;2023-06-22T13:17:55;18.47;;;7.30;;
8421;SDS011;4248;48.196;10.924;2023-06-22T13:20:21;15.73;;;6.97;;
8421;SDS011;4248;48.196;10.924;2023-06-22T13:22:46;20.63;;;6.67;;
8421;SDS011;4248;48.196;10.924;2023-06-22T13:25:12;14.57;;;5.90;;
8421;SDS011;4248;48.196;10.924;2023-06-22T13:27:38;14.17;;;6.57;;
8421;SDS011;4248;48.196;10.924;2023-06-22T13:30:05;27.33;;;7.67;;
8421;SDS011;4248;48.196;10.924;2023-06-22T13:32:31;24.33;;;6.50;;
8421;SDS011;4248;48.196;10.924;2023-06-22T13:34:56;16.03;;;6.27;;
8421;SDS011;4248;48.196;10.924;2023-06-22T13:37:22;21.53;;;5.80;;
8421;SDS011;4248;48.196;10.924;2023-06-22T13:39:48;19.40;;;6.60;;
8421;SDS011;4248;48.196;10.924;2023-06-22T13:42:13;17.43;;;6.80;;
8421;SDS011;4248;48.196;10.924;2023-06-22T13:44:39;21.23;;;6.23;;
8421;SDS011;4248;48.196;10.924;2023-06-22T13:47:05;15.40;;;5.33;;
8421;SDS011;4248;48.196;10.924;2023-06-22T13:49:31;19.53;;;5.83;;
8421;SDS011;4248;48.196;10.924;2023-06-22T13:51:57;15.60;;;6.63;;
8421;SDS011;4248;48.196;10.924;2023-06-22T13:54:22;14.63;;;6.00;;
8421;SDS011;4248;48.196;10.924;2023-06-22T13:56:48;19.17;;;5.97;;
8421;SDS011;4248;48.196;10.924;2023-06-22T13:59:13;14.00;;;5.53;;
8421;SDS011;4248;48.196;10.924;2023-06-22T14:01:39;18.97;;;6.10;;
8421;SDS011;4248;48.196;10.924;2023-06-22T14:04:06;17.70;;;6.20;;
8421;SDS011;4248;48.196;10.924;2023-06-22T14:06:31;22.03;;;5.83;;
8421;SDS011;4248;48.196;10.924;2023-06-22T14:08:57;16.80;;;5.73;;
8421;SDS011;4248;48.196;10.924;2023-06-22T14:11:22;15.30;;;5.13;;
8421;SDS011;4248;48.196;10.924;2023-06-22T14:13:48;20.57;;;5.50;;
8421;SDS011;4248;48.196;10.924;2023-06-22T14:16:13;17.30;;;4.60;;
8421;SDS011;4248;48.196;10.924;2023-06-22T14:18:39;15.67;;;5.20;;
8421;SDS011;4248;48.196;10.924;2023-06-22T14:21:04;17.47;;;5.50;;
8421;SDS011;4248;48.196;10.924;2023-06-22T14:23:30;24.73;;;5.60;;
8421;SDS011;4248;48.196;10.924;2023-06-22T14:25:55;18.20;;;5.50;;
8421;SDS011;4248;48.196;10.924;2023-06-22T14:28:21;23.67;;;5.80;;
8421;SDS011;4248;48.196;10.924;2023-06-22T14:30:46;13.03;;;5.10;;
8421;SDS011;4248;48.196;10.924;2023-06-22T14:33:12;25.40;;;4.90;;
8421;SDS011;4248;48.196;10.924;2023-06-22T14:35:38;19.23;;;5.10;;
8421;SDS011;4248;48.196;10.924;2023-06-22T14:38:03;21.07;;;5.30;;
8421;SDS011;4248;48.196;10.924;2023-06-22T14:40:29;23.27;;;6.10;;
8421;SDS011;4248;48.196;10.924;2023-06-22T14:42:55;20.43;;;5.37;;
8421;SDS011;4248;48.196;10.924;2023-06-22T14:45:21;15.53;;;4.90;;
8421;SDS011;4248;48.196;10.924;2023-06-22T14:47:48;20.90;;;5.83;;
8421;SDS011;4248;48.196;10.924;2023-06-22T14:50:14;22.43;;;6.37;;